sensor_id;sensor_type;location;lat;lon;timestamp;P1;durP1;ratioP1;P2;durP2;ratioP2
31306;SDS011;17935;51.120;13.132;2024-01-30T08:40:11;11.60;;;7.53;;
31306;SDS011;17935;51.120;13.132;2024-01-30T08:42:40;10.60;;;7.20;;
31306;SDS011;17935;51.120;13.132;2024-01-30T08:45:18;14.65;;;8.52;;
31306;SDS011;17935;51.120;13.132;2024-01-30T08:48:03;10.30;;;6.38;;
31306;SDS011;17935;51.120;13.132;2024-01-30T08:50:58;13.07;;;6.93;;
31306;SDS011;17935;51.120;13.132;2024-01-30T08:53:33;10.30;;;6.75;;
31306;SDS011;17935;51.120;13.132;2024-01-30T08:55:59;16.20;;;7.95;;
31306;SDS011;17935;51.120;13.132;2024-01-30T08:58:33;12.07;;;7.40;;
31306;SDS011;17935;51.120;13.132;2024-01-30T09:01:07;14.65;;;7.97;;
31306;SDS011;17935;51.120;13.132;2024-01-30T09:03:35;11.45;;;7.57;;
31306;SDS011;17935;51.120;13.132;2024-01-30T09:06:11;12.27;;;7.05;;
31306;SDS011;17935;51.120;13.132;2024-01-30T09:08:46;11.52;;;6.60;;
31306;SDS011;17935;51.120;13.132;2024-01-30T09:11:17;11.65;;;6.82;;
31306;SDS011;17935;51.120;13.132;2024-01-30T09:14:08;10.52;;;7.20;;
31306;SDS011;17935;51.120;13.132;2024-01-30T09:16:37;11.95;;;6.63;;
31306;SDS011;17935;51.120;13.132;2024-01-30T09:19:02;11.48;;;7.10;;
31306;SDS011;17935;51.120;13.132;2024-01-30T09:21:34;12.23;;;6.75;;
31306;SDS011;17935;51.120;13.132;2024-01-30T09:24:03;12.13;;;7.20;;
31306;SDS011;17935;51.120;13.132;2024-01-30T09:26:36;11.60;;;7.00;;
31306;SDS011;17935;51.120;13.132;2024-01-30T09:29:19;10.90;;;6.80;;
31306;SDS011;17935;51.120;13.132;2024-01-30T09:31:53;11.57;;;7.03;;
31306;SDS011;17935;51.120;13.132;2024-01-30T09:34:19;12.55;;;7.30;;
31306;SDS011;17935;51.120;13.132;2024-01-30T09:36:47;13.10;;;6.88;;
31306;SDS011;17935;51.120;13.132;2024-01-30T09:39:19;8.77;;;6.28;;
31306;SDS011;17935;51.120;13.132;2024-01-30T09:44:48;10.10;;;6.13;;
31306;SDS011;17935;51.120;13.132;2024-01-30T09:47:18;8.38;;;5.85;;
31306;SDS011;17935;51.120;13.132;2024-01-30T09:49:47;9.77;;;5.95;;
31306;SDS011;17935;51.120;13.132;2024-01-30T09:52:13;10.95;;;6.18;;
31306;SDS011;17935;51.120;13.132;2024-01-30T09:54:43;10.95;;;6.32;;
31306;SDS011;17935;51.120;13.132;2024-01-30T09:57:14;10.48;;;6.72;;
31306;SDS011;17935;51.120;13.132;2024-01-30T09:59:43;8.90;;;5.65;;
31306;SDS011;17935;51.120;13.132;2024-01-30T10:02:19;8.70;;;6.07;;
31306;SDS011;17935;51.120;13.132;2024-01-30T10:04:48;10.35;;;6.18;;
31306;SDS011;17935;51.120;13.132;2024-01-30T10:07:14;10.10;;;6.10;;
31306;SDS011;17935;51.120;13.132;2024-01-30T10:09:43;9.45;;;5.88;;
31306;SDS011;17935;51.120;13.132;2024-01-30T10:12:09;15.13;;;5.80;;
31306;SDS011;17935;51.120;13.132;2024-01-30T10:14:43;8.00;;;5.40;;
31306;SDS011;17935;51.120;13.132;2024-01-30T10:19:42;7.63;;;5.07;;
31306;SDS011;17935;51.120;13.132;2024-01-30T10:22:11;8.40;;;5.07;;
31306;SDS011;17935;51.120;13.132;2024-01-30T10:24:42;7.53;;;4.47;;
31306;SDS011;17935;51.120;13.132;2024-01-30T10:27:10;8.43;;;4.10;;
31306;SDS011;17935;51.120;13.132;2024-01-30T10:29:36;9.95;;;4.13;;
31306;SDS011;17935;51.120;13.132;2024-01-30T10:32:23;5.95;;;4.38;;
31306;SDS011;17935;51.120;13.132;2024-01-30T10:34:52;7.20;;;4.05;;
31306;SDS011;17935;51.120;13.132;2024-01-30T10:37:20;11.18;;;3.92;;
31306;SDS011;17935;51.120;13.132;2024-01-30T10:39:56;7.80;;;4.22;;
31306;SDS011;17935;51.120;13.132;2024-01-30T10:42:42;7.47;;;4.60;;
31306;SDS011;17935;51.120;13.132;2024-01-30T10:45:09;7.20;;;4.43;;
31306;SDS011;17935;51.120;13.132;2024-01-30T10:47:43;8.32;;;4.53;;
31306;SDS011;17935;51.120;13.132;2024-01-30T10:50:16;9.82;;;5.03;;
31306;SDS011;17935;51.120;13.132;2024-01-30T10:52:42;7.78;;;4.82;;
31306;SDS011;17935;51.120;13.132;2024-01-30T10:55:08;10.98;;;5.13;;
31306;SDS011;17935;51.120;13.132;2024-01-30T10:57:41;7.60;;;5.03;;
31306;SDS011;17935;51.120;13.132;2024-01-30T11:00:10;9.88;;;4.40;;
31306;SDS011;17935;51.120;13.132;2024-01-30T11:05:14;5.53;;;4.35;;
31306;SDS011;17935;51.120;13.132;2024-01-30T11:07:50;14.70;;;5.80;;
31306;SDS011;17935;51.120;13.132;2024-01-30T11:10:15;10.63;;;4.25;;
31306;SDS011;17935;51.120;13.132;2024-01-30T11:12:42;8.43;;;4.75;;
31306;SDS011;17935;51.120;13.132;2024-01-30T11:15:20;10.68;;;5.00;;
31306;SDS011;17935;51.120;13.132;2024-01-30T11:20:21;24.00;;;4.63;;
31306;SDS011;17935;51.120;13.132;2024-01-30T11:22:55;6.68;;;4.40;;
31306;SDS011;17935;51.120;13.132;2024-01-30T11:25:34;8.73;;;4.55;;
31306;SDS011;17935;51.120;13.132;2024-01-30T11:28:04;5.40;;;4.43;;
31306;SDS011;17935;51.120;13.132;2024-01-30T11:30:32;7.95;;;4.35;;
31306;SDS011;17935;51.120;13.132;2024-01-30T11:33:02;8.63;;;4.55;;
31306;SDS011;17935;51.120;13.132;2024-01-30T11:35:37;7.82;;;4.03;;
31306;SDS011;17935;51.120;13.132;2024-01-30T11:38:07;7.00;;;4.50;;
31306;SDS011;17935;51.120;13.132;2024-01-30T11:40:34;6.35;;;3.90;;
31306;SDS011;17935;51.120;13.132;2024-01-30T11:43:05;9.63;;;4.28;;
31306;SDS011;17935;51.120;13.132;2024-01-30T11:45:32;10.13;;;5.07;;
31306;SDS011;17935;51.120;13.132;2024-01-30T11:48:04;6.38;;;4.63;;
31306;SDS011;17935;51.120;13.132;2024-01-30T11:50:38;14.15;;;4.82;;
31306;SDS011;17935;51.120;13.132;2024-01-30T11:53:09;7.90;;;4.88;;
31306;SDS011;17935;51.120;13.132;2024-01-30T11:55:38;7.60;;;4.38;;
31306;SDS011;17935;51.120;13.132;2024-01-30T11:58:04;11.43;;;5.68;;
31306;SDS011;17935;51.120;13.132;2024-01-30T12:00:30;8.70;;;5.40;;
31306;SDS011;17935;51.120;13.132;2024-01-30T12:03:04;7.80;;;4.65;;
31306;SDS011;17935;51.120;13.132;2024-01-30T12:05:32;10.07;;;5.05;;
31306;SDS011;17935;51.120;13.132;2024-01-30T12:07:58;10.10;;;5.05;;
31306;SDS011;17935;51.120;13.132;2024-01-30T12:10:27;14.80;;;4.78;;
31306;SDS011;17935;51.120;13.132;2024-01-30T12:12:55;7.22;;;4.60;;
31306;SDS011;17935;51.120;13.132;2024-01-30T12:15:27;17.52;;;4.57;;
31306;SDS011;17935;51.120;13.132;2024-01-30T12:18:06;9.10;;;5.13;;
31306;SDS011;17935;51.120;13.132;2024-01-30T12:20:32;12.10;;;4.97;;
31306;SDS011;17935;51.120;13.132;2024-01-30T12:22:58;7.28;;;4.95;;
31306;SDS011;17935;51.120;13.132;2024-01-30T12:25:24;8.73;;;4.50;;
31306;SDS011;17935;51.120;13.132;2024-01-30T12:27:50;9.52;;;4.95;;
31306;SDS011;17935;51.120;13.132;2024-01-30T12:30:19;9.30;;;4.82;;
31306;SDS011;17935;51.120;13.132;2024-01-30T12:32:49;6.70;;;4.80;;
31306;SDS011;17935;51.120;13.132;2024-01-30T12:35:30;8.55;;;4.60;;
31306;SDS011;17935;51.120;13.132;2024-01-30T12:38:01;8.93;;;4.60;;
31306;SDS011;17935;51.120;13.132;2024-01-30T12:40:35;5.47;;;4.03;;
31306;SDS011;17935;51.120;13.132;2024-01-30T12:43:06;7.15;;;4.25;;
31306;SDS011;17935;51.120;13.132;2024-01-30T12:45:37;6.25;;;4.15;;
31306;SDS011;17935;51.120;13.132;2024-01-30T12:48:10;6.70;;;3.80;;
31306;SDS011;17935;51.120;13.132;2024-01-30T12:50:36;5.78;;;4.30;;
31306;SDS011;17935;51.120;13.132;2024-01-30T12:53:02;7.15;;;3.83;;
31306;SDS011;17935;51.120;13.132;2024-01-30T12:55:27;8.02;;;4.15;;
31306;SDS011;17935;51.120;13.132;2024-01-30T12:58:00;7.38;;;4.75;;
31306;SDS011;17935;51.120;13.132;2024-01-30T13:00:26;8.15;;;5.53;;
31306;SDS011;17935;51.120;13.132;2024-01-30T13:02:55;13.38;;;6.20;;
31306;SDS011;17935;51.120;13.132;2024-01-30T13:05:20;10.32;;;5.90;;
31306;SDS011;17935;51.120;13.132;2024-01-30T13:07:52;10.52;;;5.75;;
31306;SDS011;17935;51.120;13.132;2024-01-30T13:10:22;5.93;;;4.10;;
31306;SDS011;17935;51.120;13.132;2024-01-30T13:12:57;7.95;;;4.57;;
31306;SDS011;17935;51.120;13.132;2024-01-30T13:15:22;9.55;;;5.15;;
31306;SDS011;17935;51.120;13.132;2024-01-30T13:17:50;10.90;;;5.65;;
31306;SDS011;17935;51.120;13.132;2024-01-30T13:20:17;12.52;;;5.70;;
31306;SDS011;17935;51.120;13.132;2024-01-30T13:22:45;12.73;;;6.25;;
31306;SDS011;17935;51.120;13.132;2024-01-30T13:25:15;10.43;;;5.25;;
31306;SDS011;17935;51.120;13.132;2024-01-30T13:27:43;16.45;;;5.00;;
31306;SDS011;17935;51.120;13.132;2024-01-30T13:30:09;8.93;;;5.03;;
31306;SDS011;17935;51.120;13.132;2024-01-30T13:32:35;9.70;;;5.13;;
31306;SDS011;17935;51.120;13.132;2024-01-30T13:35:02;13.27;;;7.47;;
31306;SDS011;17935;51.120;13.132;2024-01-30T13:37:28;15.57;;;8.05;;
31306;SDS011;17935;51.120;13.132;2024-01-30T13:39:57;18.98;;;8.07;;
31306;SDS011;17935;51.120;13.132;2024-01-30T13:42:25;18.60;;;8.43;;
31306;SDS011;17935;51.120;13.132;2024-01-30T13:44:50;16.35;;;7.50;;
31306;SDS011;17935;51.120;13.132;2024-01-30T13:47:24;8.43;;;5.45;;
31306;SDS011;17935;51.120;13.132;2024-01-30T13:49:50;9.43;;;5.55;;
31306;SDS011;17935;51.120;13.132;2024-01-30T13:52:18;9.85;;;5.15;;
31306;SDS011;17935;51.120;13.132;2024-01-30T13:54:44;8.50;;;4.60;;
31306;SDS011;17935;51.120;13.132;2024-01-30T13:57:09;8.00;;;4.93;;
31306;SDS011;17935;51.120;13.132;2024-01-30T13:59:38;9.93;;;4.70;;
31306;SDS011;17935;51.120;13.132;2024-01-30T14:02:06;10.48;;;4.45;;
31306;SDS011;17935;51.120;13.132;2024-01-30T14:04:33;9.27;;;4.30;;
31306;SDS011;17935;51.120;13.132;2024-01-30T14:06:59;10.05;;;4.70;;
31306;SDS011;17935;51.120;13.132;2024-01-30T14:09:43;11.75;;;4.40;;
31306;SDS011;17935;51.120;13.132;2024-01-30T14:12:11;7.82;;;5.18;;
31306;SDS011;17935;51.120;13.132;2024-01-30T14:14:37;11.32;;;5.35;;
31306;SDS011;17935;51.120;13.132;2024-01-30T14:17:06;8.60;;;4.85;;
31306;SDS011;17935;51.120;13.132;2024-01-30T14:19:35;13.43;;;5.88;;
31306;SDS011;17935;51.120;13.132;2024-01-30T14:22:06;9.93;;;4.95;;
31306;SDS011;17935;51.120;13.132;2024-01-30T14:24:37;11.00;;;5.90;;
31306;SDS011;17935;51.120;13.132;2024-01-30T14:27:09;10.73;;;5.32;;
31306;SDS011;17935;51.120;13.132;2024-01-30T14:29:35;10.20;;;5.53;;
31306;SDS011;17935;51.120;13.132;2024-01-30T14:32:03;9.38;;;5.72;;
31306;SDS011;17935;51.120;13.132;2024-01-30T14:34:32;8.52;;;5.70;;
31306;SDS011;17935;51.120;13.132;2024-01-30T14:36:58;8.55;;;4.93;;
31306;SDS011;17935;51.120;13.132;2024-01-30T14:39:26;8.45;;;5.00;;
31306;SDS011;17935;51.120;13.132;2024-01-30T14:42:02;7.55;;;5.03;;
31306;SDS011;17935;51.120;13.132;2024-01-30T14:44:29;11.40;;;5.18;;
31306;SDS011;17935;51.120;13.132;2024-01-30T14:46:57;10.32;;;4.65;;
31306;SDS011;17935;51.120;13.132;2024-01-30T14:49:22;13.80;;;4.97;;
31306;SDS011;17935;51.120;13.132;2024-01-30T14:51:51;8.02;;;5.15;;
31306;SDS011;17935;51.120;13.132;2024-01-30T14:54:23;12.13;;;5.20;;
31306;SDS011;17935;51.120;13.132;2024-01-30T14:56:52;12.10;;;5.88;;
31306;SDS011;17935;51.120;13.132;2024-01-30T14:59:25;6.88;;;4.57;;
31306;SDS011;17935;51.120;13.132;2024-01-30T15:01:54;10.57;;;4.75;;
31306;SDS011;17935;51.120;13.132;2024-01-30T15:04:22;8.85;;;5.88;;
31306;SDS011;17935;51.120;13.132;2024-01-30T15:06:53;8.10;;;4.78;;
31306;SDS011;17935;51.120;13.132;2024-01-30T15:09:19;9.48;;;5.88;;
31306;SDS011;17935;51.120;13.132;2024-01-30T15:11:47;10.65;;;5.15;;
31306;SDS011;17935;51.120;13.132;2024-01-30T15:14:19;9.45;;;5.18;;
31306;SDS011;17935;51.120;13.132;2024-01-30T15:19:38;11.43;;;5.90;;
31306;SDS011;17935;51.120;13.132;2024-01-30T15:22:09;9.23;;;5.03;;
31306;SDS011;17935;51.120;13.132;2024-01-30T15:24:41;10.70;;;5.43;;
31306;SDS011;17935;51.120;13.132;2024-01-30T15:27:12;9.95;;;5.38;;
31306;SDS011;17935;51.120;13.132;2024-01-30T15:29:40;8.00;;;5.00;;
31306;SDS011;17935;51.120;13.132;2024-01-30T15:32:46;7.25;;;4.90;;
31306;SDS011;17935;51.120;13.132;2024-01-30T15:35:17;10.10;;;5.55;;
31306;SDS011;17935;51.120;13.132;2024-01-30T15:37:43;12.75;;;5.53;;
31306;SDS011;17935;51.120;13.132;2024-01-30T15:40:17;9.90;;;5.50;;
31306;SDS011;17935;51.120;13.132;2024-01-30T15:42:45;9.02;;;5.28;;
31306;SDS011;17935;51.120;13.132;2024-01-30T15:45:11;13.00;;;5.25;;
31306;SDS011;17935;51.120;13.132;2024-01-30T15:47:39;11.07;;;5.13;;
31306;SDS011;17935;51.120;13.132;2024-01-30T15:50:11;15.05;;;5.63;;
31306;SDS011;17935;51.120;13.132;2024-01-30T15:52:42;9.13;;;4.88;;
31306;SDS011;17935;51.120;13.132;2024-01-30T15:55:11;12.45;;;5.25;;
31306;SDS011;17935;51.120;13.132;2024-01-30T15:57:37;9.90;;;4.57;;
31306;SDS011;17935;51.120;13.132;2024-01-30T16:00:07;11.88;;;5.53;;
31306;SDS011;17935;51.120;13.132;2024-01-30T16:02:38;9.82;;;5.90;;
31306;SDS011;17935;51.120;13.132;2024-01-30T16:05:07;10.55;;;5.30;;
31306;SDS011;17935;51.120;13.132;2024-01-30T16:07:41;12.60;;;6.05;;
31306;SDS011;17935;51.120;13.132;2024-01-30T16:10:11;8.75;;;5.45;;
31306;SDS011;17935;51.120;13.132;2024-01-30T16:12:59;8.68;;;5.75;;
31306;SDS011;17935;51.120;13.132;2024-01-30T16:15:25;9.45;;;5.68;;
31306;SDS011;17935;51.120;13.132;2024-01-30T16:18:00;16.88;;;6.82;;
31306;SDS011;17935;51.120;13.132;2024-01-30T16:20:35;13.48;;;6.25;;
31306;SDS011;17935;51.120;13.132;2024-01-30T16:23:04;13.77;;;6.03;;
31306;SDS011;17935;51.120;13.132;2024-01-30T16:25:29;9.52;;;5.68;;
31306;SDS011;17935;51.120;13.132;2024-01-30T16:27:55;10.32;;;6.10;;
31306;SDS011;17935;51.120;13.132;2024-01-30T16:30:21;9.80;;;5.95;;
31306;SDS011;17935;51.120;13.132;2024-01-30T16:32:51;10.98;;;5.93;;
31306;SDS011;17935;51.120;13.132;2024-01-30T16:35:20;12.95;;;6.13;;
31306;SDS011;17935;51.120;13.132;2024-01-30T16:37:49;10.70;;;5.80;;
31306;SDS011;17935;51.120;13.132;2024-01-30T16:40:17;11.38;;;5.35;;
31306;SDS011;17935;51.120;13.132;2024-01-30T16:42:43;10.55;;;5.65;;
31306;SDS011;17935;51.120;13.132;2024-01-30T16:45:11;14.07;;;6.05;;
31306;SDS011;17935;51.120;13.132;2024-01-30T16:47:36;11.65;;;5.78;;
31306;SDS011;17935;51.120;13.132;2024-01-30T16:50:02;10.73;;;5.82;;
31306;SDS011;17935;51.120;13.132;2024-01-30T16:52:29;9.73;;;5.50;;
31306;SDS011;17935;51.120;13.132;2024-01-30T16:54:57;15.20;;;5.90;;
31306;SDS011;17935;51.120;13.132;2024-01-30T16:57:23;11.63;;;5.85;;
31306;SDS011;17935;51.120;13.132;2024-01-30T16:59:52;6.80;;;4.90;;
31306;SDS011;17935;51.120;13.132;2024-01-30T17:02:17;8.50;;;4.88;;
31306;SDS011;17935;51.120;13.132;2024-01-30T17:04:46;11.80;;;4.88;;
31306;SDS011;17935;51.120;13.132;2024-01-30T17:07:24;10.00;;;5.43;;
31306;SDS011;17935;51.120;13.132;2024-01-30T17:09:50;12.25;;;5.88;;
31306;SDS011;17935;51.120;13.132;2024-01-30T17:12:17;9.65;;;5.28;;
31306;SDS011;17935;51.120;13.132;2024-01-30T17:14:48;13.77;;;6.53;;
31306;SDS011;17935;51.120;13.132;2024-01-30T17:17:14;8.50;;;6.00;;
31306;SDS011;17935;51.120;13.132;2024-01-30T17:19:46;10.57;;;6.15;;
31306;SDS011;17935;51.120;13.132;2024-01-30T17:22:15;15.70;;;8.40;;
31306;SDS011;17935;51.120;13.132;2024-01-30T17:24:50;19.40;;;9.70;;
31306;SDS011;17935;51.120;13.132;2024-01-30T17:27:22;12.05;;;7.70;;
31306;SDS011;17935;51.120;13.132;2024-01-30T17:29:53;11.63;;;6.53;;
31306;SDS011;17935;51.120;13.132;2024-01-30T17:32:19;13.50;;;8.40;;
31306;SDS011;17935;51.120;13.132;2024-01-30T17:34:45;14.05;;;7.05;;
31306;SDS011;17935;51.120;13.132;2024-01-30T17:37:14;12.30;;;8.18;;
31306;SDS011;17935;51.120;13.132;2024-01-30T17:39:39;11.23;;;6.85;;
31306;SDS011;17935;51.120;13.132;2024-01-30T17:42:05;14.60;;;7.88;;
31306;SDS011;17935;51.120;13.132;2024-01-30T17:44:37;9.75;;;6.25;;
31306;SDS011;17935;51.120;13.132;2024-01-30T17:47:05;11.52;;;6.60;;
31306;SDS011;17935;51.120;13.132;2024-01-30T17:49:33;11.40;;;6.43;;
31306;SDS011;17935;51.120;13.132;2024-01-30T17:51:59;14.48;;;5.90;;
31306;SDS011;17935;51.120;13.132;2024-01-30T17:54:27;15.45;;;7.35;;
31306;SDS011;17935;51.120;13.132;2024-01-30T17:56:52;16.30;;;7.40;;
31306;SDS011;17935;51.120;13.132;2024-01-30T17:59:20;8.88;;;6.20;;
31306;SDS011;17935;51.120;13.132;2024-01-30T18:01:49;10.68;;;5.90;;
31306;SDS011;17935;51.120;13.132;2024-01-30T18:04:15;11.75;;;5.95;;
31306;SDS011;17935;51.120;13.132;2024-01-30T18:06:43;12.20;;;6.25;;
31306;SDS011;17935;51.120;13.132;2024-01-30T18:09:15;11.70;;;6.22;;
31306;SDS011;17935;51.120;13.132;2024-01-30T18:12:00;11.18;;;6.35;;
31306;SDS011;17935;51.120;13.132;2024-01-30T18:14:29;10.88;;;6.88;;
31306;SDS011;17935;51.120;13.132;2024-01-30T18:16:54;13.98;;;6.97;;
31306;SDS011;17935;51.120;13.132;2024-01-30T18:19:20;12.68;;;6.80;;
31306;SDS011;17935;51.120;13.132;2024-01-30T18:21:46;15.77;;;6.95;;
31306;SDS011;17935;51.120;13.132;2024-01-30T18:24:14;10.45;;;6.88;;
31306;SDS011;17935;51.120;13.132;2024-01-30T18:26:45;11.43;;;6.72;;
31306;SDS011;17935;51.120;13.132;2024-01-30T18:29:10;11.30;;;6.88;;
31306;SDS011;17935;51.120;13.132;2024-01-30T18:31:39;13.35;;;6.70;;
31306;SDS011;17935;51.120;13.132;2024-01-30T18:34:06;10.73;;;7.00;;
31306;SDS011;17935;51.120;13.132;2024-01-30T18:36:32;13.75;;;7.20;;
31306;SDS011;17935;51.120;13.132;2024-01-30T18:38:58;10.55;;;6.65;;
31306;SDS011;17935;51.120;13.132;2024-01-30T18:41:24;13.50;;;6.63;;
31306;SDS011;17935;51.120;13.132;2024-01-30T18:43:49;12.73;;;7.15;;
31306;SDS011;17935;51.120;13.132;2024-01-30T18:46:15;14.68;;;7.40;;
31306;SDS011;17935;51.120;13.132;2024-01-30T18:48:46;13.05;;;7.05;;
31306;SDS011;17935;51.120;13.132;2024-01-30T18:51:15;9.85;;;6.60;;
31306;SDS011;17935;51.120;13.132;2024-01-30T18:53:43;12.57;;;6.90;;
31306;SDS011;17935;51.120;13.132;2024-01-30T18:56:09;13.02;;;7.03;;
31306;SDS011;17935;51.120;13.132;2024-01-30T18:58:36;9.65;;;6.70;;
31306;SDS011;17935;51.120;13.132;2024-01-30T19:01:02;16.90;;;6.93;;
31306;SDS011;17935;51.120;13.132;2024-01-30T19:03:28;10.55;;;6.97;;
31306;SDS011;17935;51.120;13.132;2024-01-30T19:05:55;15.25;;;6.65;;
31306;SDS011;17935;51.120;13.132;2024-01-30T19:08:23;13.73;;;7.82;;
31306;SDS011;17935;51.120;13.132;2024-01-30T19:10:50;14.70;;;7.13;;
31306;SDS011;17935;51.120;13.132;2024-01-30T19:13:16;10.40;;;6.95;;
31306;SDS011;17935;51.120;13.132;2024-01-30T19:15:43;13.80;;;7.70;;
31306;SDS011;17935;51.120;13.132;2024-01-30T19:18:18;10.57;;;7.35;;
31306;SDS011;17935;51.120;13.132;2024-01-30T19:20:44;12.30;;;7.82;;
31306;SDS011;17935;51.120;13.132;2024-01-30T19:23:09;11.30;;;7.53;;
31306;SDS011;17935;51.120;13.132;2024-01-30T19:25:35;15.38;;;7.85;;
31306;SDS011;17935;51.120;13.132;2024-01-30T19:28:01;9.05;;;6.20;;
31306;SDS011;17935;51.120;13.132;2024-01-30T19:30:26;12.70;;;7.47;;
31306;SDS011;17935;51.120;13.132;2024-01-30T19:32:53;19.20;;;7.60;;
31306;SDS011;17935;51.120;13.132;2024-01-30T19:35:19;13.48;;;6.45;;
31306;SDS011;17935;51.120;13.132;2024-01-30T19:37:48;15.52;;;6.90;;
31306;SDS011;17935;51.120;13.132;2024-01-30T19:40:14;9.63;;;6.90;;
31306;SDS011;17935;51.120;13.132;2024-01-30T19:42:40;11.75;;;7.00;;
31306;SDS011;17935;51.120;13.132;2024-01-30T19:45:05;16.27;;;7.22;;
31306;SDS011;17935;51.120;13.132;2024-01-30T19:47:38;12.13;;;6.93;;
31306;SDS011;17935;51.120;13.132;2024-01-30T19:50:04;13.63;;;6.82;;
31306;SDS011;17935;51.120;13.132;2024-01-30T19:52:37;10.77;;;6.85;;
31306;SDS011;17935;51.120;13.132;2024-01-30T19:55:12;11.45;;;7.07;;
31306;SDS011;17935;51.120;13.132;2024-01-30T20:00:23;13.10;;;6.72;;
31306;SDS011;17935;51.120;13.132;2024-01-30T20:02:52;13.25;;;7.53;;
31306;SDS011;17935;51.120;13.132;2024-01-30T20:05:20;10.55;;;6.82;;
31306;SDS011;17935;51.120;13.132;2024-01-30T20:07:48;11.88;;;6.72;;
31306;SDS011;17935;51.120;13.132;2024-01-30T20:10:14;12.00;;;7.18;;
31306;SDS011;17935;51.120;13.132;2024-01-30T20:12:40;16.25;;;7.10;;
31306;SDS011;17935;51.120;13.132;2024-01-30T20:15:09;14.02;;;7.38;;
31306;SDS011;17935;51.120;13.132;2024-01-30T20:17:37;16.27;;;7.07;;
31306;SDS011;17935;51.120;13.132;2024-01-30T20:20:05;11.90;;;6.35;;
31306;SDS011;17935;51.120;13.132;2024-01-30T20:22:35;12.95;;;7.57;;
31306;SDS011;17935;51.120;13.132;2024-01-30T20:25:14;12.95;;;6.80;;
31306;SDS011;17935;51.120;13.132;2024-01-30T20:27:40;12.70;;;6.88;;
31306;SDS011;17935;51.120;13.132;2024-01-30T20:30:12;10.00;;;6.68;;
31306;SDS011;17935;51.120;13.132;2024-01-30T20:32:38;11.63;;;6.63;;
31306;SDS011;17935;51.120;13.132;2024-01-30T20:35:19;11.73;;;6.82;;
31306;SDS011;17935;51.120;13.132;2024-01-30T20:37:47;14.52;;;7.32;;
31306;SDS011;17935;51.120;13.132;2024-01-30T20:40:18;14.55;;;7.35;;
31306;SDS011;17935;51.120;13.132;2024-01-30T20:42:55;13.32;;;7.32;;
31306;SDS011;17935;51.120;13.132;2024-01-30T20:45:20;13.73;;;6.63;;
31306;SDS011;17935;51.120;13.132;2024-01-30T20:47:46;11.02;;;6.68;;
31306;SDS011;17935;51.120;13.132;2024-01-30T20:50:14;13.48;;;7.65;;
31306;SDS011;17935;51.120;13.132;2024-01-30T20:52:40;14.43;;;6.80;;
31306;SDS011;17935;51.120;13.132;2024-01-30T20:55:06;16.48;;;7.25;;
31306;SDS011;17935;51.120;13.132;2024-01-30T20:57:31;11.65;;;7.45;;
31306;SDS011;17935;51.120;13.132;2024-01-30T20:59:57;15.07;;;6.88;;
31306;SDS011;17935;51.120;13.132;2024-01-30T21:02:23;13.75;;;7.50;;
31306;SDS011;17935;51.120;13.132;2024-01-30T21:04:49;13.30;;;7.20;;
31306;SDS011;17935;51.120;13.132;2024-01-30T21:07:32;15.38;;;8.30;;
31306;SDS011;17935;51.120;13.132;2024-01-30T21:10:16;15.90;;;7.68;;
31306;SDS011;17935;51.120;13.132;2024-01-30T21:12:42;16.17;;;8.07;;
31306;SDS011;17935;51.120;13.132;2024-01-30T21:15:08;11.38;;;7.30;;
31306;SDS011;17935;51.120;13.132;2024-01-30T21:17:43;12.15;;;6.82;;
31306;SDS011;17935;51.120;13.132;2024-01-30T21:20:14;11.38;;;7.80;;
31306;SDS011;17935;51.120;13.132;2024-01-30T21:22:40;13.32;;;7.82;;
31306;SDS011;17935;51.120;13.132;2024-01-30T21:25:17;13.88;;;7.93;;
31306;SDS011;17935;51.120;13.132;2024-01-30T21:27:43;15.32;;;8.02;;
31306;SDS011;17935;51.120;13.132;2024-01-30T21:30:16;15.43;;;7.82;;
31306;SDS011;17935;51.120;13.132;2024-01-30T21:35:07;18.25;;;8.25;;
31306;SDS011;17935;51.120;13.132;2024-01-30T21:37:36;12.07;;;7.65;;
31306;SDS011;17935;51.120;13.132;2024-01-30T21:40:02;14.20;;;7.20;;
31306;SDS011;17935;51.120;13.132;2024-01-30T21:42:44;11.52;;;7.50;;
31306;SDS011;17935;51.120;13.132;2024-01-30T21:45:16;13.70;;;8.80;;
31306;SDS011;17935;51.120;13.132;2024-01-30T21:47:46;15.07;;;8.27;;
31306;SDS011;17935;51.120;13.132;2024-01-30T21:50:12;13.13;;;8.55;;
31306;SDS011;17935;51.120;13.132;2024-01-30T21:52:42;18.33;;;7.75;;
31306;SDS011;17935;51.120;13.132;2024-01-30T21:55:11;16.88;;;8.40;;
31306;SDS011;17935;51.120;13.132;2024-01-30T21:57:36;15.68;;;8.20;;
31306;SDS011;17935;51.120;13.132;2024-01-30T22:00:13;15.73;;;8.10;;
31306;SDS011;17935;51.120;13.132;2024-01-30T22:02:42;14.60;;;7.93;;
31306;SDS011;17935;51.120;13.132;2024-01-30T22:05:08;14.82;;;8.15;;
31306;SDS011;17935;51.120;13.132;2024-01-30T22:07:33;15.45;;;8.70;;
31306;SDS011;17935;51.120;13.132;2024-01-30T22:09:59;15.40;;;8.35;;
31306;SDS011;17935;51.120;13.132;2024-01-30T22:12:25;12.70;;;7.88;;
31306;SDS011;17935;51.120;13.132;2024-01-30T22:14:51;15.20;;;7.88;;
31306;SDS011;17935;51.120;13.132;2024-01-30T22:17:16;15.00;;;7.85;;
31306;SDS011;17935;51.120;13.132;2024-01-30T22:19:42;16.75;;;8.73;;
31306;SDS011;17935;51.120;13.132;2024-01-30T22:22:08;13.05;;;7.95;;
31306;SDS011;17935;51.120;13.132;2024-01-30T22:24:36;15.38;;;8.13;;
31306;SDS011;17935;51.120;13.132;2024-01-30T22:27:02;14.07;;;8.70;;
31306;SDS011;17935;51.120;13.132;2024-01-30T22:29:33;13.43;;;8.18;;
31306;SDS011;17935;51.120;13.132;2024-01-30T22:32:01;13.60;;;8.30;;
31306;SDS011;17935;51.120;13.132;2024-01-30T22:34:31;13.93;;;7.95;;
31306;SDS011;17935;51.120;13.132;2024-01-30T22:36:57;24.33;;;9.40;;
31306;SDS011;17935;51.120;13.132;2024-01-30T22:39:22;12.80;;;8.77;;
31306;SDS011;17935;51.120;13.132;2024-01-30T22:41:48;13.68;;;8.13;;
31306;SDS011;17935;51.120;13.132;2024-01-30T22:44:14;11.52;;;8.05;;
31306;SDS011;17935;51.120;13.132;2024-01-30T22:46:42;13.60;;;8.40;;
31306;SDS011;17935;51.120;13.132;2024-01-30T22:49:14;13.27;;;7.97;;
31306;SDS011;17935;51.120;13.132;2024-01-30T22:51:40;18.92;;;9.27;;
31306;SDS011;17935;51.120;13.132;2024-01-30T22:54:07;15.20;;;8.25;;
31306;SDS011;17935;51.120;13.132;2024-01-30T22:56:36;14.18;;;8.68;;
31306;SDS011;17935;51.120;13.132;2024-01-30T22:59:02;14.70;;;8.52;;
31306;SDS011;17935;51.120;13.132;2024-01-30T23:01:28;13.73;;;8.43;;
31306;SDS011;17935;51.120;13.132;2024-01-30T23:03:56;14.68;;;8.20;;
31306;SDS011;17935;51.120;13.132;2024-01-30T23:06:25;16.48;;;8.27;;
31306;SDS011;17935;51.120;13.132;2024-01-30T23:08:58;18.35;;;8.90;;
31306;SDS011;17935;51.120;13.132;2024-01-30T23:11:23;15.85;;;8.77;;
31306;SDS011;17935;51.120;13.132;2024-01-30T23:13:49;19.38;;;8.43;;
31306;SDS011;17935;51.120;13.132;2024-01-30T23:16:15;14.80;;;9.10;;
31306;SDS011;17935;51.120;13.132;2024-01-30T23:18:41;16.73;;;8.68;;
31306;SDS011;17935;51.120;13.132;2024-01-30T23:21:06;17.73;;;8.75;;
31306;SDS011;17935;51.120;13.132;2024-01-30T23:23:40;15.68;;;8.45;;
31306;SDS011;17935;51.120;13.132;2024-01-30T23:26:08;19.35;;;9.30;;
31306;SDS011;17935;51.120;13.132;2024-01-30T23:28:36;15.80;;;8.60;;
31306;SDS011;17935;51.120;13.132;2024-01-30T23:31:07;19.10;;;9.13;;
31306;SDS011;17935;51.120;13.132;2024-01-30T23:33:33;17.23;;;9.05;;
31306;SDS011;17935;51.120;13.132;2024-01-30T23:35:59;13.57;;;9.07;;